SBDN

Presidente Prudente Airport

Presidente Prudente, Brazil
TAF SBDN 211430Z 2118/2206 08006KT 9999 SCT030 TX35/2118Z TN23/2206Z PROB40 TEMPO 2118/2123 VCSH BKN030 FEW045TCU BECMG 2122/2124 CAVOK RMK PEL
Issued Valid From Valid To
Jan-21 @ 14:30 UTC
(10 hours ago)
Jan-21 @ 18:00 UTC
(6 hours ago)
Jan-22 @ 06:00 UTC
(in 6 hours)
Expired Click to View Jan-21 @ 18:00 to Jan-21 @ 22:00
TAF SBDN 211430Z 2118/2206 08006KT 9999 SCT030 TX35/2118Z TN23/2206Z
Wind Visibility Clouds
80° at 6 knots 10,000+ meters
  • Scattered at 3,000' AGL
Expired Click to View Jan-21 @ 18:00 to Jan-21 @ 23:00
PROB40 TEMPO 2118/2123 VCSH BKN030 FEW045TCU
Clouds
  • Broken at 3,000' AGL
  • Few at 4,500' AGL
Becoming Jan-21 @ 22:00 to Jan-22 @ 06:00
BECMG 2122/2124 CAVOK RMK PEL
Wind Visibility Clouds Conditions
80° at 6 knots 10,000+ meters
  • No significant clouds
TAF SBDN 211430Z 2118/2206 08006KT 9999 SCT030 TX35/2118Z TN23/2206Z PROB40 TEMPO 2118/2123 VCSH BKN030 FEW045TCU BECMG 2122/2124 CAVOK RMK PEL
Issued Jan-21 @ 14:30 UTC
(10 hours ago)
Valid From Jan-21 @ 18:00 UTC
(6 hours ago)
Valid To Jan-22 @ 06:00 UTC
(in 6 hours)
Jan-21 @ 18:00 - Jan-21 @ 22:00
Wind Visibility
80° at 6 knots 10,000+ meters
Clouds
  • Scattered at 3,000' AGL
Jan-21 @ 18:00 - Jan-21 @ 23:00
Clouds
  • Broken at 3,000' AGL
  • Few at 4,500' AGL
Becoming Jan-21 @ 22:00 - Jan-22 @ 06:00
Wind Visibility
80° at 6 knots 10,000+ meters
Clouds
  • No significant clouds
Conditions